createdAt,value
2019-03-26T00:00:46.272Z,99682.73
2019-03-26T00:03:15.998Z,99683.63
2019-03-26T00:05:46.493Z,99681.33
2019-03-26T00:08:16.271Z,99680.58
2019-03-26T00:10:46.217Z,99685.80
2019-03-26T00:13:15.959Z,99689.55
2019-03-26T00:15:45.717Z,99698.82
2019-03-26T00:18:15.460Z,99691.71
2019-03-26T00:20:45.231Z,99694.78
2019-03-26T00:23:14.939Z,99697.44
2019-03-26T00:25:44.646Z,99705.48
2019-03-26T00:28:14.436Z,99698.89
2019-03-26T00:30:44.582Z,99697.73
2019-03-26T00:33:14.354Z,99690.00
2019-03-26T00:35:44.290Z,99696.28
2019-03-26T00:38:14.105Z,99701.11
2019-03-26T00:40:44.192Z,99701.52
2019-03-26T00:43:13.893Z,99705.20
2019-03-26T00:45:43.634Z,99706.81
2019-03-26T00:48:13.360Z,99711.06
2019-03-26T00:50:43.765Z,99718.65
2019-03-26T00:53:13.467Z,99723.09
2019-03-26T00:55:43.352Z,99727.14
2019-03-26T00:58:13.094Z,99723.05
2019-03-26T01:00:46.275Z,99739.20
2019-03-26T01:03:16.015Z,99741.98
2019-03-26T01:05:46.267Z,99747.75
2019-03-26T01:08:16.309Z,99746.75
2019-03-26T01:10:47.188Z,99752.23
2019-03-26T01:13:17.456Z,99749.86
2019-03-26T01:15:47.257Z,99746.52
2019-03-26T01:18:17.410Z,99754.87
2019-03-26T01:20:47.594Z,99756.74
2019-03-26T01:23:17.598Z,99754.64
2019-03-26T01:25:47.910Z,99754.15
2019-03-26T01:28:18.188Z,99756.00
2019-03-26T01:30:49.021Z,99751.25
2019-03-26T01:33:19.523Z,99756.55
2019-03-26T01:35:50.516Z,99759.25
2019-03-26T01:38:21.736Z,99756.73
2019-03-26T01:40:52.480Z,99757.88
2019-03-26T01:43:23.067Z,99762.71
2019-03-26T01:45:53.776Z,99760.53
2019-03-26T01:48:24.401Z,99759.91
2019-03-26T01:50:56.192Z,99763.00
2019-03-26T01:53:26.541Z,99768.61
2019-03-26T01:55:57.944Z,99770.70
2019-03-26T01:58:27.979Z,99765.28
2019-03-26T02:00:58.395Z,99767.83
2019-03-26T02:03:28.561Z,99761.34
2019-03-26T02:05:58.256Z,99764.20
2019-03-26T02:08:28.504Z,99764.14
2019-03-26T02:10:58.808Z,99764.70
2019-03-26T02:13:29.007Z,99765.48
2019-03-26T02:15:59.209Z,99764.72
2019-03-26T02:18:29.900Z,99768.26
2019-03-26T02:21:00.928Z,99763.77
2019-03-26T02:23:32.131Z,99764.09
2019-03-26T02:26:02.580Z,99772.95
2019-03-26T02:28:35.732Z,99776.61
2019-03-26T02:31:06.146Z,99777.80
2019-03-26T02:33:37.105Z,99779.36
2019-03-26T02:36:07.374Z,99787.75
2019-03-26T02:38:38.272Z,99788.11
2019-03-26T02:41:09.033Z,99784.56
2019-03-26T02:43:39.438Z,99787.25
2019-03-26T02:46:09.902Z,99797.27
2019-03-26T02:48:40.191Z,99791.20
2019-03-26T02:51:10.492Z,99792.12
2019-03-26T02:53:40.354Z,99786.63
2019-03-26T02:56:10.496Z,99788.48
2019-03-26T02:58:40.432Z,99785.38
2019-03-26T03:01:11.166Z,99785.82
2019-03-26T03:03:41.224Z,99787.98
2019-03-26T03:06:11.523Z,99790.69
2019-03-26T03:08:41.856Z,99795.59
2019-03-26T03:11:12.217Z,99795.86
2019-03-26T03:13:42.289Z,99796.99
2019-03-26T03:16:12.021Z,99792.45
2019-03-26T03:18:42.229Z,99785.30
2019-03-26T03:21:11.952Z,99793.55
2019-03-26T03:23:41.731Z,99798.81
2019-03-26T03:26:12.010Z,99796.38
2019-03-26T03:28:42.315Z,99806.88
2019-03-26T03:31:12.343Z,99803.39
2019-03-26T03:33:42.364Z,99804.80
2019-03-26T03:36:12.082Z,99809.59
2019-03-26T03:38:42.202Z,99808.45
2019-03-26T03:41:11.996Z,99812.13
2019-03-26T03:43:41.756Z,99815.53
2019-03-26T03:46:11.968Z,99813.85
2019-03-26T03:48:41.993Z,99810.55
2019-03-26T03:51:14.209Z,99817.30
2019-03-26T03:53:45.067Z,99819.09
2019-03-26T03:56:17.148Z,99826.33
2019-03-26T03:58:51.161Z,99823.63
2019-03-26T04:01:20.898Z,99823.56
2019-03-26T04:03:50.665Z,99829.50
2019-03-26T04:06:21.583Z,99828.13
2019-03-26T04:08:52.344Z,99835.42
2019-03-26T04:11:23.825Z,99842.13
2019-03-26T04:13:55.428Z,99835.44
2019-03-26T04:16:25.852Z,99836.00
2019-03-26T04:18:56.339Z,99843.66
2019-03-26T04:21:26.640Z,99844.67
2019-03-26T04:23:57.199Z,99843.88
2019-03-26T04:26:28.242Z,99844.25
2019-03-26T04:28:58.707Z,99846.03
2019-03-26T04:31:29.332Z,99851.40
2019-03-26T04:33:59.334Z,99858.64
2019-03-26T04:36:29.978Z,99859.44
2019-03-26T04:39:00.168Z,99858.58
2019-03-26T04:41:30.327Z,99859.83
2019-03-26T04:44:00.682Z,99861.66
2019-03-26T04:46:31.208Z,99857.80
2019-03-26T04:49:01.289Z,99858.23
2019-03-26T04:51:31.634Z,99854.83
2019-03-26T04:54:01.685Z,99859.62
2019-03-26T04:56:31.952Z,99853.72
2019-03-26T04:59:02.048Z,99853.89
2019-03-26T05:01:32.193Z,99862.97
2019-03-26T05:04:02.667Z,99856.11
2019-03-26T05:06:37.957Z,99863.79
2019-03-26T05:09:05.996Z,99864.17
2019-03-26T05:11:36.281Z,99863.47
2019-03-26T05:14:06.196Z,99867.19
2019-03-26T05:16:36.028Z,99860.62
2019-03-26T05:19:05.853Z,99865.23
2019-03-26T05:21:35.713Z,99871.64
2019-03-26T05:24:05.606Z,99868.86
2019-03-26T05:26:35.537Z,99873.57
2019-03-26T05:29:05.327Z,99884.42
2019-03-26T05:31:35.341Z,99889.34
2019-03-26T05:34:05.055Z,99891.36
2019-03-26T05:36:35.432Z,99893.42
2019-03-26T05:39:06.198Z,99893.97
2019-03-26T05:41:36.385Z,99896.47
2019-03-26T05:44:06.922Z,99891.16
2019-03-26T05:46:37.714Z,99896.64
2019-03-26T05:49:07.437Z,99900.58
2019-03-26T05:51:37.773Z,99899.17
2019-03-26T05:54:07.970Z,99898.42
2019-03-26T05:56:37.967Z,99896.48
2019-03-26T05:59:07.755Z,99900.86
2019-03-26T06:01:37.891Z,99903.17
2019-03-26T06:04:07.665Z,99907.12
2019-03-26T06:06:38.159Z,99908.16
2019-03-26T06:09:08.455Z,99909.11
2019-03-26T06:11:38.938Z,99911.02
2019-03-26T06:14:08.977Z,99913.19
2019-03-26T06:16:39.537Z,99920.48
2019-03-26T06:19:09.602Z,99931.06
2019-03-26T06:21:39.325Z,99933.86
2019-03-26T06:24:09.651Z,99924.17
2019-03-26T06:26:39.857Z,99934.63
2019-03-26T06:29:09.870Z,99932.02
2019-03-26T06:31:40.664Z,99936.48
2019-03-26T06:34:10.741Z,99935.70
2019-03-26T06:36:41.337Z,99939.25
2019-03-26T06:39:12.105Z,99940.34
2019-03-26T06:41:42.505Z,99939.41
2019-03-26T06:44:13.104Z,99945.13
2019-03-26T06:46:43.492Z,99945.27
2019-03-26T06:49:14.123Z,99956.53
2019-03-26T06:51:44.943Z,99950.81
2019-03-26T06:54:15.381Z,99956.67
2019-03-26T06:56:46.179Z,99959.85
2019-03-26T06:59:17.697Z,99961.37
2019-03-26T07:01:47.985Z,99960.48
2019-03-26T07:04:18.368Z,99963.44
2019-03-26T07:06:49.066Z,99963.44
2019-03-26T07:09:19.756Z,99965.35
2019-03-26T07:11:50.017Z,99959.34
2019-03-26T07:14:20.307Z,99967.51
2019-03-26T07:16:50.730Z,99959.67
2019-03-26T07:19:21.203Z,99950.23
2019-03-26T07:21:51.936Z,99950.48
2019-03-26T07:24:22.528Z,99954.84
2019-03-26T07:26:53.318Z,99955.97
2019-03-26T07:29:23.638Z,99960.38
2019-03-26T07:31:53.917Z,99968.78
2019-03-26T07:34:24.753Z,99976.14
2019-03-26T07:36:56.054Z,99981.38
2019-03-26T07:39:27.417Z,99982.98
2019-03-26T07:41:58.385Z,99978.48
2019-03-26T07:44:29.606Z,99971.74
2019-03-26T07:47:01.020Z,99978.67
2019-03-26T07:49:31.786Z,99974.62
2019-03-26T07:52:02.143Z,99975.26
2019-03-26T07:54:33.236Z,99979.86
2019-03-26T07:57:03.362Z,99977.93
2019-03-26T07:59:33.416Z,99978.73
2019-03-26T08:02:03.547Z,99970.07
2019-03-26T08:04:33.735Z,99974.77
2019-03-26T08:07:04.107Z,99975.66
2019-03-26T08:09:34.149Z,99974.58
2019-03-26T08:12:04.389Z,99967.86
2019-03-26T08:14:34.278Z,99969.48
2019-03-26T08:17:04.457Z,99975.17
2019-03-26T08:19:34.382Z,99971.36
2019-03-26T08:22:04.269Z,99962.81
2019-03-26T08:24:34.287Z,99970.91
2019-03-26T08:27:04.406Z,99975.65
2019-03-26T08:29:34.389Z,99981.45
2019-03-26T08:32:05.430Z,99971.16
2019-03-26T08:34:35.400Z,99976.07
2019-03-26T08:37:05.820Z,99979.15
2019-03-26T08:39:36.982Z,99985.50
2019-03-26T08:42:07.068Z,99994.41
2019-03-26T08:44:37.308Z,99994.39
2019-03-26T08:47:07.536Z,100003.64
2019-03-26T08:49:37.655Z,100009.95
2019-03-26T08:52:07.821Z,100001.98
2019-03-26T08:54:37.885Z,99994.75
2019-03-26T08:57:08.157Z,99999.05
2019-03-26T08:59:38.568Z,99993.67
2019-03-26T09:02:08.636Z,99991.82
2019-03-26T09:04:38.645Z,99986.37
2019-03-26T09:07:11.059Z,99986.37
2019-03-26T09:09:41.022Z,99987.20
2019-03-26T09:12:11.391Z,99984.47
2019-03-26T09:14:41.728Z,99990.62
2019-03-26T09:17:11.772Z,99985.16
2019-03-26T09:19:42.074Z,99987.64
2019-03-26T09:22:13.093Z,99988.38
2019-03-26T09:24:44.146Z,99995.16
2019-03-26T09:27:14.343Z,99991.00
2019-03-26T09:29:45.236Z,99997.53
2019-03-26T09:32:17.529Z,100002.80
2019-03-26T09:34:47.739Z,99995.52
2019-03-26T09:37:17.813Z,100002.69
2019-03-26T09:39:48.088Z,100008.62
2019-03-26T09:42:18.259Z,100004.92
2019-03-26T09:44:48.736Z,100006.50
2019-03-26T09:47:19.352Z,100011.88
2019-03-26T09:49:50.130Z,100016.08
2019-03-26T09:52:20.171Z,100020.01
2019-03-26T09:54:50.368Z,100023.53
2019-03-26T09:57:20.508Z,100013.91
2019-03-26T09:59:50.779Z,100013.99
2019-03-26T10:02:21.245Z,100010.29
2019-03-26T10:04:51.244Z,100019.12
2019-03-26T10:07:22.021Z,100024.50
2019-03-26T10:09:51.975Z,100039.47
2019-03-26T10:12:22.646Z,100033.22
2019-03-26T10:14:53.216Z,100023.19
2019-03-26T10:17:24.068Z,100017.16
2019-03-26T10:19:54.582Z,100022.50
2019-03-26T10:22:25.085Z,100021.05
2019-03-26T10:24:55.067Z,100029.29
2019-03-26T10:27:25.727Z,100030.42
2019-03-26T10:29:56.339Z,100023.09
2019-03-26T10:32:26.480Z,100023.58
2019-03-26T10:34:56.852Z,100025.58
2019-03-26T10:37:30.361Z,100023.63
2019-03-26T10:40:01.101Z,100021.25
2019-03-26T10:42:32.032Z,100021.11
2019-03-26T10:45:02.389Z,100021.88
2019-03-26T10:47:32.891Z,100021.16
2019-03-26T10:50:03.317Z,100025.48
2019-03-26T10:52:34.375Z,100029.87
2019-03-26T10:55:05.108Z,100013.55
2019-03-26T10:57:34.971Z,100011.15
2019-03-26T11:00:05.533Z,100014.10
2019-03-26T11:02:35.383Z,100012.28
2019-03-26T11:05:06.023Z,100010.16
2019-03-26T11:07:35.810Z,99991.94
2019-03-26T11:10:05.955Z,99997.44
2019-03-26T11:12:35.923Z,99986.23
2019-03-26T11:15:06.791Z,99983.16
2019-03-26T11:17:37.104Z,99989.41
2019-03-26T11:20:08.685Z,99979.15
2019-03-26T11:22:38.895Z,99982.08
2019-03-26T11:25:12.195Z,99975.81
2019-03-26T11:27:41.324Z,99975.66
2019-03-26T11:30:11.366Z,99975.67
2019-03-26T11:32:42.117Z,99985.58
2019-03-26T11:35:11.891Z,99978.59
2019-03-26T11:37:41.818Z,99976.92
2019-03-26T11:40:12.695Z,99979.88
2019-03-26T11:42:42.592Z,99983.39
2019-03-26T11:45:14.347Z,99977.91
2019-03-26T11:47:44.136Z,99973.80
2019-03-26T11:50:14.354Z,99972.63
2019-03-26T11:52:44.063Z,99975.96
2019-03-26T11:55:14.131Z,99962.27
2019-03-26T11:57:44.029Z,99963.38
2019-03-26T12:00:16.901Z,99967.12
2019-03-26T12:02:46.879Z,99957.35
2019-03-26T12:05:17.267Z,99961.50
2019-03-26T12:07:47.113Z,99956.84
2019-03-26T12:10:17.460Z,99961.34
2019-03-26T12:12:47.633Z,99957.86
2019-03-26T12:15:17.887Z,99961.19
2019-03-26T12:17:48.418Z,99952.20
2019-03-26T12:20:18.492Z,99953.98
2019-03-26T12:22:48.522Z,99958.77
2019-03-26T12:25:18.616Z,99952.50
2019-03-26T12:27:48.852Z,99950.17
2019-03-26T12:30:31.988Z,99941.91
2019-03-26T12:33:02.207Z,99947.75
2019-03-26T12:35:32.069Z,99943.91
2019-03-26T12:38:03.254Z,99945.42
2019-03-26T12:40:33.015Z,99927.89
2019-03-26T12:43:02.925Z,99933.80
2019-03-26T12:45:32.652Z,99929.75
2019-03-26T12:48:02.380Z,99937.79
2019-03-26T12:50:32.413Z,99933.11
2019-03-26T12:53:02.344Z,99930.55
2019-03-26T12:55:32.136Z,99933.35
2019-03-26T12:58:01.844Z,99926.36
2019-03-26T13:00:34.921Z,99926.42
2019-03-26T13:03:04.635Z,99918.61
2019-03-26T13:05:34.320Z,99923.20
2019-03-26T13:08:04.436Z,99924.17
2019-03-26T13:10:34.146Z,99925.09
2019-03-26T13:13:04.078Z,99925.61
2019-03-26T13:15:33.801Z,99925.98
2019-03-26T13:18:03.545Z,99922.02
2019-03-26T13:20:33.254Z,99906.92
2019-03-26T13:23:02.985Z,99919.89
2019-03-26T13:25:32.679Z,99910.34
2019-03-26T13:28:02.528Z,99910.23
2019-03-26T13:30:32.453Z,99912.89
2019-03-26T13:33:03.338Z,99913.97
2019-03-26T13:35:34.471Z,99911.53
2019-03-26T13:38:04.525Z,99913.70
2019-03-26T13:40:35.536Z,99905.85
2019-03-26T13:43:05.851Z,99910.16
2019-03-26T13:45:35.638Z,99908.31
2019-03-26T13:48:05.656Z,99909.36
2019-03-26T13:50:35.854Z,99906.52
2019-03-26T13:53:06.445Z,99904.00
2019-03-26T13:55:36.360Z,99900.23
2019-03-26T13:58:06.539Z,99899.91
2019-03-26T14:00:41.960Z,99888.68
2019-03-26T14:03:11.902Z,99897.59
2019-03-26T14:05:41.607Z,99890.17
2019-03-26T14:08:11.329Z,99899.93
2019-03-26T14:10:41.780Z,99893.33
2019-03-26T14:13:11.454Z,99888.31
2019-03-26T14:15:41.649Z,99889.16
2019-03-26T14:18:11.570Z,99889.27
2019-03-26T14:20:41.290Z,99880.45
2019-03-26T14:23:10.983Z,99887.20
2019-03-26T14:25:41.013Z,99882.16
2019-03-26T14:28:10.727Z,99891.12
2019-03-26T14:30:42.493Z,99884.80
2019-03-26T14:33:13.439Z,99889.82
2019-03-26T14:35:44.021Z,99891.98
2019-03-26T14:38:14.825Z,99894.55
2019-03-26T14:40:54.545Z,99884.52
2019-03-26T14:43:18.359Z,99894.16
2019-03-26T14:45:49.533Z,99888.76
2019-03-26T14:48:21.248Z,99879.89
2019-03-26T14:50:51.945Z,99883.66
2019-03-26T14:53:23.219Z,99877.39
2019-03-26T14:55:53.974Z,99872.31
2019-03-26T14:58:24.972Z,99878.07
2019-03-26T15:00:55.657Z,99887.33
2019-03-26T15:03:25.772Z,99882.08
2019-03-26T15:05:56.386Z,99902.98
2019-03-26T15:08:26.612Z,99907.36
2019-03-26T15:11:07.602Z,99903.94
2019-03-26T15:13:29.238Z,99897.95
2019-03-26T15:15:59.249Z,99900.16
2019-03-26T15:18:28.947Z,99910.35
2019-03-26T15:20:59.305Z,99906.33
2019-03-26T15:23:28.989Z,99910.92
2019-03-26T15:25:59.319Z,99905.27
2019-03-26T15:28:29.202Z,99908.86
2019-03-26T15:30:59.945Z,99906.20
2019-03-26T15:33:29.846Z,99903.70
2019-03-26T15:35:59.590Z,99905.04
2019-03-26T15:38:29.855Z,99902.39
2019-03-26T15:40:59.824Z,99905.66
2019-03-26T15:43:29.600Z,99911.78
2019-03-26T15:45:59.690Z,99910.98
2019-03-26T15:48:29.801Z,99914.03
2019-03-26T15:50:59.939Z,99913.56
2019-03-26T15:53:29.701Z,99911.36
2019-03-26T15:55:59.423Z,99910.64
2019-03-26T15:58:29.169Z,99911.59
2019-03-26T16:00:58.926Z,99908.42
2019-03-26T16:03:28.638Z,99905.39
2019-03-26T16:05:58.604Z,99908.34
2019-03-26T16:08:28.346Z,99914.78
2019-03-26T16:10:58.161Z,99918.08
2019-03-26T16:13:27.962Z,99911.11
2019-03-26T16:15:58.477Z,99917.50
2019-03-26T16:18:28.196Z,99917.83
2019-03-26T16:20:58.349Z,99918.67
2019-03-26T16:23:28.238Z,99905.95
2019-03-26T16:25:57.964Z,99919.41
2019-03-26T16:28:27.919Z,99915.91
2019-03-26T16:30:58.272Z,99921.31
2019-03-26T16:33:29.090Z,99925.52
2019-03-26T16:36:00.825Z,99932.11
2019-03-26T16:38:32.124Z,99935.17
2019-03-26T16:41:02.591Z,99937.44
2019-03-26T16:43:33.526Z,99926.99
2019-03-26T16:46:03.838Z,99926.76
2019-03-26T16:48:34.549Z,99937.77
2019-03-26T16:51:04.749Z,99936.08
2019-03-26T16:53:35.025Z,99932.84
2019-03-26T16:56:05.288Z,99943.09
2019-03-26T16:58:35.464Z,99932.15
2019-03-26T17:01:05.692Z,99934.69
2019-03-26T17:03:35.926Z,99934.25
2019-03-26T17:06:05.897Z,99936.95
2019-03-26T17:08:36.360Z,99939.48
2019-03-26T17:11:06.395Z,99936.09
2019-03-26T17:13:36.920Z,99945.34
2019-03-26T17:16:07.648Z,99947.18
2019-03-26T17:18:38.490Z,99943.17
2019-03-26T17:21:09.337Z,99946.41
2019-03-26T17:23:39.160Z,99940.77
2019-03-26T17:26:08.973Z,99939.78
2019-03-26T17:28:39.024Z,99941.95
2019-03-26T17:50:05.500Z,99948.19
2019-03-26T17:55:30.774Z,99950.31
2019-03-26T17:58:00.625Z,99951.62
2019-03-26T18:00:39.351Z,99956.59
2019-03-26T18:03:09.149Z,99957.53
2019-03-26T18:05:38.839Z,99961.47
2019-03-26T18:08:08.606Z,99965.19
2019-03-26T18:10:38.639Z,99965.56
2019-03-26T18:13:08.502Z,99966.10
2019-03-26T18:15:38.244Z,99966.87
2019-03-26T18:18:08.285Z,99969.25
2019-03-26T18:20:38.163Z,99972.92
2019-03-26T18:23:07.908Z,99974.89
2019-03-26T18:25:37.661Z,99971.32
2019-03-26T18:28:07.372Z,99975.09
2019-03-26T18:30:37.064Z,99981.59
2019-03-26T18:33:06.870Z,99981.72
2019-03-26T18:35:36.633Z,99976.47
2019-03-26T18:38:06.395Z,99980.94
2019-03-26T18:40:36.129Z,99986.24
2019-03-26T18:43:05.998Z,99981.77
2019-03-26T18:45:35.716Z,99986.06
2019-03-26T18:48:05.859Z,99983.80
2019-03-26T18:50:35.958Z,99989.86
2019-03-26T18:53:06.160Z,99989.09
2019-03-26T18:55:36.193Z,99998.00
2019-03-26T18:58:05.934Z,99996.59
2019-03-26T19:00:38.619Z,99993.02
2019-03-26T19:03:09.882Z,99985.28
2019-03-26T19:05:40.028Z,99992.17
2019-03-26T19:08:10.282Z,99994.00
2019-03-26T19:10:40.623Z,99993.81
2019-03-26T19:13:19.141Z,99987.61
2019-03-26T19:15:41.882Z,99991.37
2019-03-26T19:18:11.645Z,99989.81
2019-03-26T19:20:41.368Z,99983.43
2019-03-26T19:23:11.072Z,99985.76
2019-03-26T19:25:40.961Z,99996.39
2019-03-26T19:28:10.757Z,99990.70
2019-03-26T19:30:40.498Z,99995.53
2019-03-26T19:33:10.245Z,99993.97
2019-03-26T19:35:40.152Z,99996.52
2019-03-26T19:38:09.854Z,99999.11
2019-03-26T19:40:39.612Z,99998.61
2019-03-26T19:43:11.314Z,100002.69
2019-03-26T19:45:40.834Z,99996.15
2019-03-26T19:48:10.549Z,99996.34
2019-03-26T19:50:40.313Z,99996.77
2019-03-26T19:53:10.104Z,100006.43
2019-03-26T19:55:40.047Z,100000.67
2019-03-26T19:58:09.934Z,100001.50
2019-03-26T20:00:39.705Z,100000.09
2019-03-26T20:03:09.419Z,100004.81
2019-03-26T20:05:39.208Z,100004.00
2019-03-26T20:08:09.090Z,100009.47
2019-03-26T20:10:38.865Z,100014.32
2019-03-26T20:13:08.593Z,100011.70
2019-03-26T20:15:38.397Z,100007.67
2019-03-26T20:18:08.251Z,100008.65
2019-03-26T20:20:38.140Z,100001.48
2019-03-26T20:23:08.027Z,100006.45
2019-03-26T20:25:37.795Z,100000.84
2019-03-26T20:28:07.562Z,99999.34
2019-03-26T20:30:37.269Z,99999.30
2019-03-26T20:33:07.323Z,100011.28
2019-03-26T20:35:37.044Z,100008.06
2019-03-26T20:38:06.998Z,100008.84
2019-03-26T20:40:36.818Z,100008.38
2019-03-26T20:43:06.593Z,100019.55
2019-03-26T20:45:36.541Z,100016.73
2019-03-26T20:48:06.484Z,100017.48
2019-03-26T20:50:36.498Z,100014.47
2019-03-26T20:53:06.792Z,100017.08
2019-03-26T20:55:36.985Z,100018.08
2019-03-26T20:58:06.731Z,100022.58
2019-03-26T21:00:39.775Z,100017.15
2019-03-26T21:03:09.735Z,100021.82
2019-03-26T21:05:39.992Z,100021.36
2019-03-26T21:08:09.771Z,100026.41
2019-03-26T21:10:39.547Z,100035.92
2019-03-26T21:13:09.627Z,100037.19
2019-03-26T21:15:42.598Z,100045.52
2019-03-26T21:18:12.639Z,100038.00
2019-03-26T21:20:42.510Z,100042.91
2019-03-26T21:23:12.317Z,100044.94
2019-03-26T21:25:42.263Z,100045.30
2019-03-26T21:28:12.127Z,100040.87
2019-03-26T21:30:41.883Z,100046.67
2019-03-26T21:33:11.660Z,100045.31
2019-03-26T21:35:41.384Z,100043.66
2019-03-26T21:38:11.433Z,100044.52
2019-03-26T21:40:41.227Z,100041.47
2019-03-26T21:43:11.054Z,100041.83
2019-03-26T21:45:41.551Z,100048.80
2019-03-26T21:48:11.757Z,100044.31
2019-03-26T21:50:41.483Z,100038.64
2019-03-26T21:53:13.093Z,100045.55
2019-03-26T21:55:42.882Z,100050.67
2019-03-26T21:58:13.531Z,100056.31
2019-03-26T22:02:39.812Z,100055.55
2019-03-26T22:05:10.480Z,100057.83
2019-03-26T22:07:42.515Z,100063.92
2019-03-26T22:10:31.223Z,100064.66
2019-03-26T22:13:00.929Z,100057.15
2019-03-26T22:15:30.660Z,100063.51
2019-03-26T22:18:00.395Z,100064.25
2019-03-26T22:20:30.124Z,100058.06
2019-03-26T22:22:59.912Z,100053.77
2019-03-26T22:25:29.680Z,100049.59
2019-03-26T22:27:59.700Z,100057.22
2019-03-26T22:30:29.428Z,100055.26
2019-03-26T22:32:59.307Z,100059.38
2019-03-26T22:35:29.366Z,100058.00
2019-03-26T22:37:59.164Z,100058.48
2019-03-26T22:40:29.082Z,100055.14
2019-03-26T22:42:58.984Z,100060.50
2019-03-26T22:45:28.692Z,100060.28
2019-03-26T22:47:58.635Z,100054.91
2019-03-26T22:50:28.421Z,100047.15
2019-03-26T22:52:58.347Z,100043.09
2019-03-26T22:55:28.049Z,100043.96
2019-03-26T22:57:57.893Z,100051.45
2019-03-26T23:00:29.514Z,100050.05
2019-03-26T23:02:59.541Z,100055.26
2019-03-26T23:05:29.238Z,100053.73
2019-03-26T23:07:59.249Z,100050.98
2019-03-26T23:10:28.953Z,100049.16
2019-03-26T23:12:59.040Z,100049.42
2019-03-26T23:15:29.481Z,100052.75
2019-03-26T23:17:59.173Z,100044.66
2019-03-26T23:20:28.866Z,100049.99
2019-03-26T23:22:58.657Z,100052.47
2019-03-26T23:25:28.644Z,100056.20
2019-03-26T23:27:59.254Z,100053.09
2019-03-26T23:30:29.035Z,100051.34
2019-03-26T23:32:58.856Z,100054.56
2019-03-26T23:35:28.542Z,100042.20
2019-03-26T23:37:58.287Z,100056.66
2019-03-26T23:40:28.455Z,100057.08
2019-03-26T23:42:58.533Z,100051.89
2019-03-26T23:45:28.255Z,100056.09
2019-03-26T23:47:57.923Z,100059.94
2019-03-26T23:50:27.649Z,100056.09
2019-03-26T23:52:57.488Z,100055.34
2019-03-26T23:55:27.354Z,100051.65
2019-03-26T23:57:57.557Z,100062.04
